createdAt,value
2023-03-10T00:01:44.995Z,17.58
2023-03-10T00:04:56.643Z,17.55
2023-03-10T00:08:00.034Z,17.55
2023-03-10T00:11:02.253Z,17.51
2023-03-10T00:14:04.264Z,17.48
2023-03-10T00:17:06.867Z,17.41
2023-03-10T00:20:12.185Z,17.40
2023-03-10T00:23:14.143Z,17.35
2023-03-10T00:26:17.791Z,17.34
2023-03-10T00:29:19.946Z,17.26
2023-03-10T00:32:22.109Z,17.33
2023-03-10T00:35:24.096Z,17.32
2023-03-10T00:38:26.035Z,17.30
2023-03-10T00:41:33.607Z,17.28
2023-03-10T00:44:35.863Z,17.26
2023-03-10T00:47:37.951Z,17.23
2023-03-10T00:50:39.873Z,17.28
2023-03-10T00:53:42.986Z,17.16
2023-03-10T00:56:45.043Z,17.15
2023-03-10T00:59:51.207Z,17.14
2023-03-10T01:02:53.209Z,17.06
2023-03-10T01:05:56.373Z,16.98
2023-03-10T01:08:58.941Z,16.74
2023-03-10T01:12:01.176Z,16.70
2023-03-10T01:15:03.916Z,16.65
2023-03-10T01:18:06.848Z,16.60
2023-03-10T01:21:20.241Z,16.58
2023-03-10T01:24:22.354Z,16.58
2023-03-10T01:27:24.370Z,16.55
2023-03-10T01:30:26.531Z,16.56
2023-03-10T01:33:28.615Z,16.57
2023-03-10T01:36:30.795Z,16.44
2023-03-10T01:39:32.867Z,16.45
2023-03-10T01:42:35.227Z,16.26
2023-03-10T01:45:37.224Z,16.37
2023-03-10T01:48:39.305Z,16.35
2023-03-10T01:51:44.406Z,16.18
2023-03-10T01:55:02.547Z,16.22
2023-03-10T01:58:05.839Z,16.30
2023-03-10T02:01:11.836Z,16.31
2023-03-10T02:04:25.099Z,16.24
2023-03-10T02:07:29.874Z,16.28
2023-03-10T02:10:33.101Z,16.22
2023-03-10T02:13:35.165Z,16.11
2023-03-10T02:16:37.250Z,15.99
2023-03-10T02:20:00.789Z,15.95
2023-03-10T02:23:04.648Z,15.94
2023-03-10T02:26:27.899Z,15.94
2023-03-10T02:29:58.406Z,15.89
2023-03-10T02:33:06.978Z,15.86
2023-03-10T02:36:18.828Z,15.93
2023-03-10T02:39:21.222Z,15.83
2023-03-10T02:42:27.318Z,15.82
2023-03-10T02:45:33.157Z,15.68
2023-03-10T02:48:38.329Z,15.71
2023-03-10T02:51:46.759Z,15.74
2023-03-10T02:54:51.249Z,15.91
2023-03-10T02:57:53.308Z,15.88
2023-03-10T03:00:55.960Z,15.84
2023-03-10T03:03:58.326Z,15.77
2023-03-10T03:07:01.431Z,15.59
2023-03-10T03:10:04.943Z,15.64
2023-03-10T03:13:07.629Z,15.44
2023-03-10T03:16:11.334Z,15.27
2023-03-10T03:19:14.872Z,15.37
2023-03-10T03:22:17.363Z,15.27
2023-03-10T03:25:21.052Z,15.17
2023-03-10T03:28:23.644Z,15.27
2023-03-10T03:31:27.738Z,15.15
2023-03-10T03:34:39.396Z,15.23
2023-03-10T03:37:43.631Z,15.18
2023-03-10T03:40:46.336Z,15.17
2023-03-10T03:43:51.257Z,15.20
2023-03-10T03:46:54.704Z,15.29
2023-03-10T03:49:58.079Z,15.07
2023-03-10T03:53:00.317Z,15.11
2023-03-10T03:56:05.174Z,15.07
2023-03-10T03:59:10.205Z,15.09
2023-03-10T04:02:13.236Z,15.02
2023-03-10T04:05:16.418Z,15.01
2023-03-10T04:08:18.483Z,14.97
2023-03-10T04:11:20.887Z,15.05
2023-03-10T04:14:24.893Z,15.05
2023-03-10T04:17:27.413Z,15.05
2023-03-10T04:20:29.844Z,15.07
2023-03-10T04:23:32.221Z,15.01
2023-03-10T04:26:34.520Z,14.74
2023-03-10T04:29:38.610Z,14.58
2023-03-10T04:32:41.246Z,14.63
2023-03-10T04:35:47.650Z,14.63
2023-03-10T04:38:52.000Z,14.73
2023-03-10T04:41:56.037Z,14.88
2023-03-10T04:44:58.154Z,14.83
2023-03-10T04:48:00.647Z,15.00
2023-03-10T04:51:07.198Z,15.08
2023-03-10T04:54:14.569Z,15.05
2023-03-10T04:57:17.396Z,15.00
2023-03-10T05:00:20.248Z,15.05
2023-03-10T05:03:23.764Z,15.10
2023-03-10T05:06:26.570Z,15.13
2023-03-10T05:09:39.448Z,15.12
2023-03-10T05:12:42.501Z,15.11
2023-03-10T05:15:45.496Z,15.07
2023-03-10T05:18:48.010Z,15.11
2023-03-10T05:21:53.889Z,15.13
2023-03-10T05:24:56.646Z,15.05
2023-03-10T05:27:58.816Z,15.06
2023-03-10T05:31:01.900Z,15.09
2023-03-10T05:34:05.150Z,15.29
2023-03-10T05:37:07.827Z,15.56
2023-03-10T05:40:14.480Z,15.78
2023-03-10T05:43:17.830Z,15.80
2023-03-10T05:46:20.663Z,16.12
2023-03-10T05:49:28.269Z,16.18
2023-03-10T05:52:30.762Z,16.30
2023-03-10T05:55:33.609Z,16.73
2023-03-10T05:58:36.306Z,16.81
2023-03-10T06:01:38.705Z,16.94
2023-03-10T06:04:40.717Z,16.82
2023-03-10T06:07:43.310Z,16.79
2023-03-10T06:10:45.561Z,17.16
2023-03-10T06:13:47.558Z,17.07
2023-03-10T06:16:51.762Z,17.40
2023-03-10T06:19:53.941Z,17.50
2023-03-10T06:22:55.955Z,17.44
2023-03-10T06:26:02.262Z,17.80
2023-03-10T06:29:04.385Z,18.11
2023-03-10T06:32:06.636Z,18.41
2023-03-10T06:35:12.361Z,18.78
2023-03-10T06:38:14.477Z,19.17
2023-03-10T06:41:16.963Z,20.09
2023-03-10T06:44:19.043Z,20.79
2023-03-10T06:47:21.169Z,21.45
2023-03-10T06:50:23.144Z,21.84
2023-03-10T06:53:25.210Z,21.29
2023-03-10T06:56:27.367Z,20.40
2023-03-10T06:59:31.989Z,20.12
2023-03-10T07:02:34.049Z,19.77
2023-03-10T07:05:36.060Z,19.55
2023-03-10T07:08:38.172Z,19.44
2023-03-10T07:11:40.284Z,19.29
2023-03-10T07:14:42.326Z,19.25
2023-03-10T07:17:44.803Z,19.17
2023-03-10T07:20:48.532Z,19.11
2023-03-10T07:23:50.836Z,19.17
2023-03-10T07:26:53.102Z,19.32
2023-03-10T07:29:56.385Z,19.32
2023-03-10T07:32:58.682Z,19.25
2023-03-10T07:36:05.764Z,19.34
2023-03-10T07:39:08.148Z,19.39
2023-03-10T07:42:10.364Z,19.37
2023-03-10T07:45:12.662Z,19.34
2023-03-10T07:48:15.690Z,19.30
2023-03-10T07:51:17.675Z,19.37
2023-03-10T07:54:19.802Z,19.39
2023-03-10T07:57:21.835Z,19.33
2023-03-10T08:00:24.092Z,19.34
2023-03-10T08:03:28.083Z,19.30
2023-03-10T08:06:32.851Z,19.32
2023-03-10T08:09:35.584Z,19.24
2023-03-10T08:12:38.175Z,19.43
2023-03-10T08:15:40.897Z,19.44
2023-03-10T08:18:44.295Z,19.50
2023-03-10T08:21:46.460Z,19.42
2023-03-10T08:24:48.561Z,19.38
2023-03-10T08:27:50.617Z,19.53
2023-03-10T08:31:04.160Z,19.72
2023-03-10T08:34:07.471Z,19.89
2023-03-10T08:37:12.688Z,20.07
2023-03-10T08:40:16.320Z,20.03
2023-03-10T08:43:18.978Z,20.21
2023-03-10T08:46:22.343Z,20.44
2023-03-10T08:49:24.434Z,20.41
2023-03-10T08:52:26.425Z,20.45
2023-03-10T08:55:28.508Z,20.46
2023-03-10T08:58:30.863Z,20.40
2023-03-10T09:01:35.402Z,20.48
2023-03-10T09:04:37.588Z,20.52
2023-03-10T09:07:39.626Z,20.63
2023-03-10T09:10:43.639Z,20.63
2023-03-10T09:13:46.190Z,20.60
2023-03-10T09:16:48.362Z,20.76
2023-03-10T09:19:50.526Z,20.88
2023-03-10T09:22:53.488Z,21.11
2023-03-10T09:25:55.525Z,21.20
2023-03-10T09:28:57.567Z,21.37
2023-03-10T09:31:59.664Z,21.63
2023-03-10T09:35:01.860Z,21.97
2023-03-10T09:38:04.121Z,22.15
2023-03-10T09:41:37.003Z,22.25
2023-03-10T09:45:03.222Z,22.34
2023-03-10T09:48:26.534Z,22.52
2023-03-10T09:51:29.018Z,22.59
2023-03-10T09:54:42.281Z,22.68
2023-03-10T09:57:56.155Z,22.70
2023-03-10T10:00:59.738Z,22.63
2023-03-10T10:04:28.202Z,22.43
2023-03-10T10:07:49.432Z,22.49
2023-03-10T10:10:55.436Z,22.55
2023-03-10T10:14:29.313Z,22.55
2023-03-10T10:18:08.373Z,22.39
2023-03-10T10:21:17.212Z,22.32
2023-03-10T10:24:20.581Z,22.38
2023-03-10T10:27:25.101Z,22.43
2023-03-10T10:30:27.720Z,22.45
2023-03-10T10:33:49.951Z,22.40
2023-03-10T10:36:57.549Z,22.31
2023-03-10T10:40:00.588Z,22.27
2023-03-10T10:43:06.091Z,22.32
2023-03-10T10:46:10.502Z,22.33
2023-03-10T10:49:29.555Z,22.26
2023-03-10T10:52:33.604Z,22.33
2023-03-10T10:55:35.732Z,22.35
2023-03-10T10:58:39.808Z,22.20
2023-03-10T11:01:54.658Z,22.18
2023-03-10T11:05:17.491Z,22.18
2023-03-10T11:08:28.212Z,22.19
2023-03-10T11:11:37.940Z,22.15
2023-03-10T11:15:16.705Z,22.08
2023-03-10T11:18:31.718Z,22.07
2023-03-10T11:21:39.026Z,22.08
2023-03-10T11:24:54.875Z,21.97
2023-03-10T11:27:59.890Z,21.97
2023-03-10T11:31:43.238Z,21.93
2023-03-10T11:34:50.885Z,21.86
2023-03-10T11:38:11.905Z,21.84
2023-03-10T11:41:19.409Z,21.93
2023-03-10T11:44:26.235Z,21.91
2023-03-10T11:47:46.591Z,21.94
2023-03-10T11:50:55.340Z,21.91
2023-03-10T11:54:01.327Z,21.74
2023-03-10T11:57:25.857Z,21.75
2023-03-10T12:00:36.124Z,21.81
2023-03-10T12:03:57.992Z,21.76
2023-03-10T12:07:15.783Z,21.87
2023-03-10T12:10:22.254Z,21.81
2023-03-10T12:13:27.775Z,21.74
2023-03-10T12:16:36.330Z,21.65
2023-03-10T12:20:08.214Z,21.62
2023-03-10T12:23:10.228Z,21.50
2023-03-10T12:26:13.122Z,21.52
2023-03-10T12:29:21.446Z,21.64
2023-03-10T12:32:38.983Z,21.62
2023-03-10T12:35:48.269Z,21.67
2023-03-10T12:38:55.327Z,21.65
2023-03-10T12:41:58.834Z,21.71
2023-03-10T12:45:06.499Z,21.80
2023-03-10T12:48:20.117Z,21.78
2023-03-10T12:51:25.811Z,21.89
2023-03-10T12:54:34.000Z,21.92
2023-03-10T12:57:44.902Z,21.94
2023-03-10T13:00:51.186Z,21.87
2023-03-10T13:03:55.634Z,21.82
2023-03-10T13:07:03.921Z,21.82
2023-03-10T13:10:11.259Z,21.74
2023-03-10T13:13:17.794Z,21.85
2023-03-10T13:16:21.286Z,21.87
2023-03-10T13:19:25.874Z,21.88
2023-03-10T13:22:30.803Z,21.90
2023-03-10T13:25:37.249Z,21.95
2023-03-10T13:28:39.530Z,21.99
2023-03-10T13:31:41.778Z,21.97
2023-03-10T13:34:47.806Z,21.95
2023-03-10T13:38:19.805Z,21.99
2023-03-10T13:41:23.362Z,22.01
2023-03-10T13:44:29.866Z,22.02
2023-03-10T13:47:32.190Z,22.07
2023-03-10T13:50:35.470Z,22.10
2023-03-10T13:53:38.917Z,22.06
2023-03-10T13:56:43.639Z,22.03
2023-03-10T13:59:48.102Z,21.92
2023-03-10T14:02:53.162Z,21.84
2023-03-10T14:05:55.298Z,21.76
2023-03-10T14:09:11.678Z,21.71
2023-03-10T14:12:14.712Z,21.67
2023-03-10T14:15:19.553Z,21.68
2023-03-10T14:18:21.639Z,21.67
2023-03-10T14:21:32.523Z,21.91
2023-03-10T14:24:34.520Z,22.17
2023-03-10T14:27:41.078Z,22.45
2023-03-10T14:30:44.447Z,22.50
2023-03-10T14:33:47.675Z,22.59
2023-03-10T14:36:49.763Z,22.64
2023-03-10T14:39:52.005Z,22.65
2023-03-10T14:42:58.070Z,22.60
2023-03-10T14:46:03.034Z,22.63
2023-03-10T14:49:11.315Z,22.76
2023-03-10T14:52:18.120Z,22.89
2023-03-10T14:55:20.119Z,22.74
2023-03-10T14:58:28.341Z,22.94
2023-03-10T15:01:31.141Z,22.80
2023-03-10T15:04:33.336Z,22.79
2023-03-10T15:07:39.391Z,22.80
2023-03-10T15:10:44.127Z,22.79
2023-03-10T15:13:46.072Z,22.75
2023-03-10T15:16:48.208Z,22.81
2023-03-10T15:19:53.474Z,22.77
2023-03-10T15:22:55.714Z,22.73
2023-03-10T15:25:59.134Z,22.70
2023-03-10T15:29:01.215Z,22.78
2023-03-10T15:32:04.167Z,22.74
2023-03-10T15:35:06.441Z,22.64
2023-03-10T15:38:19.301Z,22.64
2023-03-10T15:41:21.820Z,22.58
2023-03-10T15:44:23.951Z,22.55
2023-03-10T15:47:26.073Z,22.61
2023-03-10T15:50:28.148Z,22.51
2023-03-10T15:53:30.334Z,22.39
2023-03-10T15:56:32.378Z,22.32
2023-03-10T15:59:35.779Z,22.34
2023-03-10T16:02:37.765Z,22.22
2023-03-10T16:05:48.292Z,22.13
2023-03-10T16:08:50.235Z,22.35
2023-03-10T16:11:52.225Z,22.29
2023-03-10T16:14:55.509Z,22.54
2023-03-10T16:17:58.180Z,22.76
2023-03-10T16:21:03.729Z,22.99
2023-03-10T16:24:07.159Z,23.15
2023-03-10T16:27:10.992Z,23.20
2023-03-10T16:30:19.366Z,23.53
2023-03-10T16:33:26.662Z,24.51
2023-03-10T16:36:30.055Z,25.42
2023-03-10T16:39:33.345Z,25.32
2023-03-10T16:42:38.974Z,24.09
2023-03-10T16:45:41.097Z,23.13
2023-03-10T16:48:50.992Z,22.58
2023-03-10T16:51:53.067Z,22.25
2023-03-10T16:55:00.865Z,22.18
2023-03-10T16:58:09.343Z,22.00
2023-03-10T17:01:11.752Z,21.95
2023-03-10T17:04:14.338Z,21.63
2023-03-10T17:07:16.644Z,21.63
2023-03-10T17:10:18.885Z,21.58
2023-03-10T17:13:21.308Z,21.64
2023-03-10T17:16:28.505Z,21.48
2023-03-10T17:19:31.008Z,21.57
2023-03-10T17:22:33.428Z,21.81
2023-03-10T17:25:39.806Z,21.76
2023-03-10T17:28:46.442Z,21.64
2023-03-10T17:31:59.098Z,21.57
2023-03-10T17:35:03.612Z,21.54
2023-03-10T17:38:06.384Z,21.55
2023-03-10T17:41:15.057Z,21.46
2023-03-10T17:44:17.727Z,21.28
2023-03-10T17:47:19.844Z,21.21
2023-03-10T17:50:32.378Z,21.12
2023-03-10T17:53:42.963Z,21.08
2023-03-10T17:57:44.964Z,21.02
2023-03-10T18:00:48.413Z,20.84
2023-03-10T18:03:50.778Z,20.82
2023-03-10T18:06:55.068Z,20.75
2023-03-10T18:09:59.024Z,20.75
2023-03-10T18:13:02.471Z,20.66
2023-03-10T18:16:07.749Z,20.64
2023-03-10T18:19:11.290Z,20.68
2023-03-10T18:22:13.804Z,20.67
2023-03-10T18:25:16.720Z,20.62
2023-03-10T18:28:40.009Z,20.54
2023-03-10T18:31:45.599Z,20.49
2023-03-10T18:34:47.657Z,20.42
2023-03-10T18:37:52.353Z,20.34
2023-03-10T18:40:59.880Z,20.39
2023-03-10T18:44:02.216Z,20.36
2023-03-10T18:47:08.700Z,20.26
2023-03-10T18:50:12.232Z,20.21
2023-03-10T18:53:14.511Z,20.19
2023-03-10T18:56:18.297Z,20.15
2023-03-10T18:59:20.405Z,20.16
2023-03-10T19:02:23.940Z,20.23
2023-03-10T19:05:27.156Z,20.31
2023-03-10T19:08:29.190Z,20.21
2023-03-10T19:11:37.253Z,20.22
2023-03-10T19:14:41.054Z,20.10
2023-03-10T19:17:43.803Z,20.15
2023-03-10T19:20:53.901Z,20.26
2023-03-10T19:23:56.140Z,20.17
2023-03-10T19:26:58.193Z,20.20
2023-03-10T19:30:00.426Z,20.14
2023-03-10T19:33:04.790Z,20.08
2023-03-10T19:36:13.330Z,20.13
2023-03-10T19:39:15.653Z,19.94
2023-03-10T19:42:17.791Z,19.98
2023-03-10T19:45:20.120Z,19.94
2023-03-10T19:48:22.121Z,19.95
2023-03-10T19:51:27.868Z,19.93
2023-03-10T19:54:30.062Z,19.72
2023-03-10T19:57:33.935Z,19.64
2023-03-10T20:00:36.600Z,19.50
2023-03-10T20:03:38.836Z,19.43
2023-03-10T20:06:43.712Z,19.37
2023-03-10T20:09:46.180Z,19.34
2023-03-10T20:12:51.644Z,19.23
2023-03-10T20:15:53.800Z,19.21
2023-03-10T20:18:56.250Z,19.16
2023-03-10T20:21:58.508Z,19.14
2023-03-10T20:25:02.287Z,19.22
2023-03-10T20:28:04.554Z,19.05
2023-03-10T20:31:06.541Z,19.01
2023-03-10T20:34:17.624Z,19.07
2023-03-10T20:37:19.564Z,19.14
2023-03-10T20:40:24.340Z,19.15
2023-03-10T20:43:27.125Z,19.13
2023-03-10T20:46:29.225Z,19.14
2023-03-10T20:49:31.595Z,19.29
2023-03-10T20:52:35.738Z,19.18
2023-03-10T20:55:38.119Z,19.08
2023-03-10T20:58:40.641Z,18.97
2023-03-10T21:01:42.962Z,18.80
2023-03-10T21:04:45.328Z,18.76
2023-03-10T21:07:47.727Z,18.78
2023-03-10T21:10:49.854Z,18.73
2023-03-10T21:13:52.075Z,18.75
2023-03-10T21:16:55.393Z,18.68
2023-03-10T21:19:57.622Z,18.74
2023-03-10T21:22:59.840Z,18.70
2023-03-10T21:26:01.862Z,18.74
2023-03-10T21:29:04.912Z,18.78
2023-03-10T21:32:08.310Z,18.94
2023-03-10T21:35:13.912Z,19.04
2023-03-10T21:38:15.922Z,19.08
2023-03-10T21:41:20.784Z,19.14
2023-03-10T21:44:24.296Z,19.23
2023-03-10T21:47:26.385Z,19.10
2023-03-10T21:50:28.445Z,19.07
2023-03-10T21:53:30.783Z,19.10
2023-03-10T21:56:32.945Z,19.06
2023-03-10T21:59:35.173Z,19.13
2023-03-10T22:02:37.615Z,19.16
2023-03-10T22:05:39.940Z,19.09
2023-03-10T22:08:42.627Z,19.03
2023-03-10T22:11:44.662Z,19.07
2023-03-10T22:14:47.662Z,19.00
2023-03-10T22:17:50.526Z,18.93
2023-03-10T22:20:52.677Z,19.01
2023-03-10T22:23:57.302Z,18.81
2023-03-10T22:26:59.397Z,18.87
2023-03-10T22:30:01.612Z,18.82
2023-03-10T22:33:03.958Z,18.75
2023-03-10T22:36:08.616Z,18.77
2023-03-10T22:39:10.705Z,18.76
2023-03-10T22:42:13.620Z,18.67
2023-03-10T22:45:20.767Z,18.75
2023-03-10T22:48:23.033Z,18.74
2023-03-10T22:51:25.352Z,18.73
2023-03-10T22:54:28.560Z,18.65
2023-03-10T22:57:30.874Z,18.62
2023-03-10T23:00:33.968Z,18.66
2023-03-10T23:03:37.566Z,18.66
2023-03-10T23:06:39.727Z,18.64
2023-03-10T23:09:41.747Z,18.62
2023-03-10T23:12:44.510Z,18.63
2023-03-10T23:15:47.719Z,18.65
2023-03-10T23:18:50.417Z,18.52
2023-03-10T23:21:52.511Z,18.48
2023-03-10T23:24:54.501Z,18.41
2023-03-10T23:27:57.435Z,18.45
2023-03-10T23:31:00.555Z,18.31
2023-03-10T23:34:02.611Z,18.14
2023-03-10T23:37:04.877Z,18.09
2023-03-10T23:40:11.694Z,18.08
2023-03-10T23:43:13.767Z,18.02
2023-03-10T23:46:16.013Z,18.07
2023-03-10T23:49:18.110Z,18.07
2023-03-10T23:52:20.282Z,18.08
2023-03-10T23:55:26.791Z,18.07
2023-03-10T23:58:29.060Z,18.03
